Time;durP1;ratioP1;P1;durP2;ratioP2;P2;SDS_P1;SDS_P2;PMS_P1;PMS_P2;Temp;Humidity;BMP_temperature;BMP_pressure;BME280_temperature;BME280_humidity;BME280_pressure;Samples;Min_cycle;Max_cycle;Signal;HPM_P1;HPM_P2
2023/08/11 00:01:06;;;;;;;6.00;4.60;;;;;;;;;;5083604;28;20538;-88
2023/08/11 00:03:32;;;;;;;6.93;4.88;;;;;;;;;;5092909;28;20034;-88
2023/08/11 00:05:58;;;;;;;7.30;5.55;;;;;;;;;;5088919;28;20022;-90
2023/08/11 00:08:23;;;;;;;5.80;4.50;;;;;;;;;;5090011;28;20024;-88
2023/08/11 00:10:49;;;;;;;6.70;4.30;;;;;;;;;;5092696;28;20118;-88
2023/08/11 00:13:15;;;;;;;5.22;4.30;;;;;;;;;;5095195;28;20043;-86
2023/08/11 00:15:41;;;;;;;5.60;4.15;;;;;;;;;;5089981;28;20020;-89
2023/08/11 00:18:09;;;;;;;8.27;4.75;;;;;;;;;;5086845;28;20056;-87
2023/08/11 00:20:34;;;;;;;6.82;4.85;;;;;;;;;;5096070;28;20028;-88
2023/08/11 00:23:00;;;;;;;6.60;4.97;;;;;;;;;;5092990;28;20039;-88
2023/08/11 00:25:25;;;;;;;6.15;4.47;;;;;;;;;;5087465;28;20471;-76
2023/08/11 00:27:51;;;;;;;7.43;4.80;;;;;;;;;;5090695;28;20107;-76
2023/08/11 00:30:16;;;;;;;7.07;4.40;;;;;;;;;;5091233;28;20023;-76
2023/08/11 00:32:42;;;;;;;6.20;4.38;;;;;;;;;;5089747;28;20089;-77
2023/08/11 00:35:07;;;;;;;5.47;4.32;;;;;;;;;;5090077;28;20043;-77
2023/08/11 00:37:33;;;;;;;5.90;4.60;;;;;;;;;;5085164;28;20047;-76
2023/08/11 00:39:59;;;;;;;8.23;4.80;;;;;;;;;;5081203;28;20085;-76
2023/08/11 00:42:25;;;;;;;5.50;4.60;;;;;;;;;;5082872;28;20536;-76
2023/08/11 00:44:50;;;;;;;5.32;4.45;;;;;;;;;;5093293;28;20111;-77
2023/08/11 00:47:16;;;;;;;6.38;4.60;;;;;;;;;;5089850;28;20115;-77
2023/08/11 00:49:43;;;;;;;7.05;5.30;;;;;;;;;;5088729;28;20499;-76
2023/08/11 00:52:09;;;;;;;7.43;5.22;;;;;;;;;;5080400;28;20036;-76
2023/08/11 00:54:36;;;;;;;5.90;4.90;;;;;;;;;;5088310;28;20626;-76
2023/08/11 00:57:02;;;;;;;5.90;4.53;;;;;;;;;;5086751;28;20031;-76
2023/08/11 00:59:27;;;;;;;8.57;5.30;;;;;;;;;;5091145;28;20365;-76
2023/08/11 01:01:53;;;;;;;7.75;5.13;;;;;;;;;;5091603;28;20048;-77
2023/08/11 01:04:20;;;;;;;6.70;5.10;;;;;;;;;;5089929;28;20021;-76
2023/08/11 01:06:47;;;;;;;6.63;5.07;;;;;;;;;;5096462;28;20027;-76
2023/08/11 01:09:28;;;;;;;6.82;5.47;;;;;;;;;;5090811;28;20020;-76
2023/08/11 01:12:25;;;;;;;6.65;5.40;;;;;;;;;;5083362;28;20503;-77
2023/08/11 01:14:56;;;;;;;7.32;5.45;;;;;;;;;;5088901;28;20028;-77
2023/08/11 01:17:23;;;;;;;7.63;5.65;;;;;;;;;;5092267;28;20134;-77
2023/08/11 01:19:49;;;;;;;8.00;5.97;;;;;;;;;;5093403;28;20044;-76
2023/08/11 01:22:18;;;;;;;7.50;5.78;;;;;;;;;;5094940;28;20389;-76
2023/08/11 01:24:45;;;;;;;7.10;5.70;;;;;;;;;;5096197;28;20016;-76
2023/08/11 01:27:11;;;;;;;9.27;6.25;;;;;;;;;;5092664;28;20023;-76
2023/08/11 01:29:36;;;;;;;8.68;5.97;;;;;;;;;;5088681;28;20376;-77
2023/08/11 01:32:02;;;;;;;7.07;6.35;;;;;;;;;;5089830;28;20124;-76
2023/08/11 01:34:27;;;;;;;6.43;5.25;;;;;;;;;;5095129;28;20024;-88
2023/08/11 01:37:00;;;;;;;7.22;5.88;;;;;;;;;;5094891;28;20035;-89
2023/08/11 01:39:29;;;;;;;8.73;5.75;;;;;;;;;;5101256;28;20031;-88
2023/08/11 01:41:55;;;;;;;7.90;6.05;;;;;;;;;;5092375;28;20035;-88
2023/08/11 01:44:22;;;;;;;8.30;7.40;;;;;;;;;;5095313;28;20020;-87
2023/08/11 01:46:50;;;;;;;8.05;6.13;;;;;;;;;;5093775;28;20027;-87
2023/08/11 01:49:15;;;;;;;8.75;6.38;;;;;;;;;;5087354;28;20031;-88
2023/08/11 01:51:42;;;;;;;9.95;6.60;;;;;;;;;;5086281;28;20020;-89
2023/08/11 01:54:08;;;;;;;7.65;6.20;;;;;;;;;;5095724;28;20018;-87
2023/08/11 01:56:34;;;;;;;8.40;6.60;;;;;;;;;;5077957;28;20384;-88
2023/08/11 01:59:02;;;;;;;8.23;6.40;;;;;;;;;;5090604;28;20110;-87
2023/08/11 02:01:27;;;;;;;9.68;6.80;;;;;;;;;;5088612;28;20024;-84
2023/08/11 02:03:53;;;;;;;12.88;6.60;;;;;;;;;;5091671;28;20039;-88
2023/08/11 02:06:18;;;;;;;7.78;6.55;;;;;;;;;;5095556;28;20103;-87
2023/08/11 02:08:43;;;;;;;8.02;6.97;;;;;;;;;;5087298;28;20032;-88
2023/08/11 02:11:09;;;;;;;7.95;6.68;;;;;;;;;;5100149;28;20024;-88
2023/08/11 02:13:34;;;;;;;8.68;7.15;;;;;;;;;;5094124;28;20012;-88
2023/08/11 02:16:00;;;;;;;9.77;7.65;;;;;;;;;;5094198;28;20078;-88
2023/08/11 02:18:25;;;;;;;8.52;6.90;;;;;;;;;;5090501;28;20024;-88
2023/08/11 02:20:51;;;;;;;12.43;8.10;;;;;;;;;;5088984;28;20025;-88
2023/08/11 02:23:17;;;;;;;8.07;7.15;;;;;;;;;;5084588;28;20020;-88
2023/08/11 02:25:42;;;;;;;8.68;7.05;;;;;;;;;;5093012;28;20031;-87
2023/08/11 02:28:08;;;;;;;8.98;7.32;;;;;;;;;;5087954;28;20031;-88
2023/08/11 02:30:33;;;;;;;10.70;8.18;;;;;;;;;;5076218;28;20052;-88
2023/08/11 02:32:59;;;;;;;10.80;8.25;;;;;;;;;;5093712;28;20106;-88
2023/08/11 02:35:25;;;;;;;10.02;8.32;;;;;;;;;;5093352;28;20012;-88
2023/08/11 02:37:50;;;;;;;9.15;8.15;;;;;;;;;;5090864;28;20029;-87
2023/08/11 02:40:19;;;;;;;11.50;9.52;;;;;;;;;;5091618;28;20119;-88
2023/08/11 02:42:52;;;;;;;10.65;8.50;;;;;;;;;;5093482;28;20023;-88
2023/08/11 02:45:17;;;;;;;12.70;8.85;;;;;;;;;;5089875;28;20079;-87
2023/08/11 02:47:42;;;;;;;10.57;8.70;;;;;;;;;;5093700;28;20062;-88
2023/08/11 02:50:08;;;;;;;11.30;8.60;;;;;;;;;;5088717;28;20024;-86
2023/08/11 02:52:35;;;;;;;10.07;8.35;;;;;;;;;;5089128;28;20084;-88
2023/08/11 02:55:02;;;;;;;13.65;9.00;;;;;;;;;;5093273;28;20448;-88
2023/08/11 02:57:28;;;;;;;9.85;7.85;;;;;;;;;;5089568;28;20020;-89
2023/08/11 02:59:53;;;;;;;9.57;7.90;;;;;;;;;;5095926;28;20020;-88
2023/08/11 03:02:18;;;;;;;11.52;8.43;;;;;;;;;;5091741;28;20095;-88
2023/08/11 03:04:44;;;;;;;10.20;8.27;;;;;;;;;;5093220;28;20396;-87
2023/08/11 03:07:09;;;;;;;8.75;7.47;;;;;;;;;;5094668;28;20023;-88
2023/08/11 03:09:35;;;;;;;10.13;8.07;;;;;;;;;;5093958;28;20154;-86
2023/08/11 03:12:01;;;;;;;10.10;8.85;;;;;;;;;;5088250;28;20371;-88
2023/08/11 03:14:26;;;;;;;10.13;8.30;;;;;;;;;;5094115;28;20095;-88
2023/08/11 03:16:53;;;;;;;10.60;8.68;;;;;;;;;;5090193;28;20443;-87
2023/08/11 03:19:19;;;;;;;10.73;8.02;;;;;;;;;;5090559;28;20024;-88
2023/08/11 03:21:44;;;;;;;8.82;7.38;;;;;;;;;;5093190;28;20016;-87
2023/08/11 03:24:10;;;;;;;12.32;8.85;;;;;;;;;;5088517;28;20487;-86
2023/08/11 03:26:36;;;;;;;11.38;8.68;;;;;;;;;;5092451;28;20020;-89
2023/08/11 03:29:02;;;;;;;9.63;8.48;;;;;;;;;;5092579;28;20488;-87
2023/08/11 03:31:27;;;;;;;9.70;7.63;;;;;;;;;;5084216;28;20030;-87
2023/08/11 03:33:53;;;;;;;9.85;8.38;;;;;;;;;;5091323;28;20024;-86
2023/08/11 03:36:19;;;;;;;10.43;8.63;;;;;;;;;;5092700;28;20020;-88
2023/08/11 03:38:44;;;;;;;9.48;8.05;;;;;;;;;;5091859;28;20020;-88
2023/08/11 03:41:09;;;;;;;10.00;8.45;;;;;;;;;;5091726;28;20027;-88
2023/08/11 03:43:35;;;;;;;11.77;8.95;;;;;;;;;;5093162;28;20036;-88
2023/08/11 03:46:00;;;;;;;10.38;8.65;;;;;;;;;;5091775;28;20028;-88
2023/08/11 03:48:26;;;;;;;9.93;7.72;;;;;;;;;;5092140;28;20111;-87
2023/08/11 03:50:51;;;;;;;10.50;8.25;;;;;;;;;;5089397;28;20028;-88
2023/08/11 03:53:17;;;;;;;9.65;8.02;;;;;;;;;;5093995;28;20024;-88
2023/08/11 03:55:45;;;;;;;12.00;8.82;;;;;;;;;;5100055;28;20110;-89
2023/08/11 03:58:12;;;;;;;9.80;8.27;;;;;;;;;;5089268;28;20059;-88
2023/08/11 04:00:38;;;;;;;10.60;8.18;;;;;;;;;;5082592;28;20025;-88
2023/08/11 04:03:04;;;;;;;8.90;7.35;;;;;;;;;;5091019;28;20085;-89
2023/08/11 04:05:30;;;;;;;8.80;7.43;;;;;;;;;;5092016;28;20114;-85
2023/08/11 04:07:55;;;;;;;10.60;8.63;;;;;;;;;;5085571;28;20027;-88
2023/08/11 04:10:21;;;;;;;9.80;7.70;;;;;;;;;;5088927;28;20032;-89
2023/08/11 04:12:46;;;;;;;10.52;8.45;;;;;;;;;;5092406;28;20031;-87
2023/08/11 04:15:12;;;;;;;9.32;8.23;;;;;;;;;;5096018;28;20502;-89
2023/08/11 04:17:37;;;;;;;10.02;8.43;;;;;;;;;;5085772;28;20024;-90
2023/08/11 04:20:13;;;;;;;10.20;7.93;;;;;;;;;;5087744;28;20020;-88
2023/08/11 04:22:40;;;;;;;9.02;7.55;;;;;;;;;;5091910;28;20471;-88
2023/08/11 04:25:10;;;;;;;9.88;8.45;;;;;;;;;;5099388;28;20077;-89
2023/08/11 04:27:36;;;;;;;9.65;8.65;;;;;;;;;;5088826;28;20122;-88
2023/08/11 04:30:02;;;;;;;9.32;8.30;;;;;;;;;;5090090;28;20497;-86
2023/08/11 04:32:28;;;;;;;10.32;7.90;;;;;;;;;;5091810;28;20116;-89
2023/08/11 04:34:53;;;;;;;11.45;9.18;;;;;;;;;;5085677;28;20098;-89
2023/08/11 04:37:19;;;;;;;10.52;9.32;;;;;;;;;;5092857;28;20099;-87
2023/08/11 04:39:44;;;;;;;11.15;8.05;;;;;;;;;;5083010;28;20020;-89
2023/08/11 04:42:10;;;;;;;13.48;8.40;;;;;;;;;;5084621;28;20031;-90
2023/08/11 04:44:35;;;;;;;9.60;8.45;;;;;;;;;;5085082;28;20024;-88
2023/08/11 04:47:00;;;;;;;12.27;9.40;;;;;;;;;;5075566;28;20109;-88
2023/08/11 04:49:26;;;;;;;10.80;8.55;;;;;;;;;;5080350;28;20028;-89
2023/08/11 04:51:52;;;;;;;10.35;8.32;;;;;;;;;;5087865;28;20024;-87
2023/08/11 04:54:17;;;;;;;11.32;9.48;;;;;;;;;;5088051;28;20020;-87
2023/08/11 04:56:43;;;;;;;12.40;8.68;;;;;;;;;;5092394;28;20538;-88
2023/08/11 04:59:09;;;;;;;11.27;9.27;;;;;;;;;;5094426;28;20407;-88
2023/08/11 05:01:35;;;;;;;10.65;9.02;;;;;;;;;;5079447;28;20471;-89
2023/08/11 05:04:00;;;;;;;11.07;9.00;;;;;;;;;;5074583;28;20047;-89
2023/08/11 05:06:26;;;;;;;10.82;8.60;;;;;;;;;;5088680;28;20024;-87
2023/08/11 05:08:51;;;;;;;10.18;8.52;;;;;;;;;;5082275;28;20024;-88
2023/08/11 05:11:16;;;;;;;13.10;9.30;;;;;;;;;;5085279;28;20032;-88
2023/08/11 05:13:43;;;;;;;10.48;8.65;;;;;;;;;;5088468;28;20019;-88
2023/08/11 05:16:09;;;;;;;11.73;9.43;;;;;;;;;;5086734;28;20024;-87
2023/08/11 05:18:35;;;;;;;11.57;9.32;;;;;;;;;;5086531;28;20020;-87
2023/08/11 05:21:01;;;;;;;11.80;9.20;;;;;;;;;;5089857;28;20442;-86
2023/08/11 05:23:27;;;;;;;10.82;8.57;;;;;;;;;;5084148;28;20491;-83
2023/08/11 05:25:53;;;;;;;12.40;9.07;;;;;;;;;;5090493;28;20028;-87
2023/08/11 05:28:19;;;;;;;11.90;8.88;;;;;;;;;;5091107;28;20020;-88
2023/08/11 05:30:45;;;;;;;13.25;9.65;;;;;;;;;;5085522;28;20115;-88
2023/08/11 05:33:11;;;;;;;12.65;9.07;;;;;;;;;;5091159;28;20024;-88
2023/08/11 05:35:39;;;;;;;12.50;9.38;;;;;;;;;;5090668;28;20028;-88
2023/08/11 05:38:05;;;;;;;13.35;9.85;;;;;;;;;;5091029;28;20472;-88
2023/08/11 05:40:30;;;;;;;11.05;8.93;;;;;;;;;;5090190;28;20024;-88
2023/08/11 05:42:56;;;;;;;12.00;7.95;;;;;;;;;;5089218;28;20028;-86
2023/08/11 05:45:22;;;;;;;12.90;9.43;;;;;;;;;;5088857;28;20028;-87
2023/08/11 05:47:47;;;;;;;13.60;8.98;;;;;;;;;;5092140;28;20047;-87
2023/08/11 05:50:13;;;;;;;12.43;9.15;;;;;;;;;;5090816;28;20039;-88
2023/08/11 05:52:38;;;;;;;15.75;10.45;;;;;;;;;;5089760;28;20024;-88
2023/08/11 05:55:05;;;;;;;14.05;9.27;;;;;;;;;;5090634;28;20107;-87
2023/08/11 05:57:30;;;;;;;13.45;9.48;;;;;;;;;;5088792;28;20026;-88
2023/08/11 05:59:56;;;;;;;12.10;9.25;;;;;;;;;;5090327;28;20051;-86
2023/08/11 06:02:22;;;;;;;14.60;11.13;;;;;;;;;;5090474;28;20364;-88
2023/08/11 06:04:48;;;;;;;14.82;10.70;;;;;;;;;;5091538;28;20032;-87
2023/08/11 06:07:14;;;;;;;16.27;9.85;;;;;;;;;;5090445;28;20026;-88
2023/08/11 06:09:39;;;;;;;13.90;10.38;;;;;;;;;;5090230;28;20552;-86
2023/08/11 06:12:05;;;;;;;17.15;10.82;;;;;;;;;;5089515;28;20541;-88
2023/08/11 06:14:31;;;;;;;14.60;10.18;;;;;;;;;;5086170;28;20021;-88
2023/08/11 06:16:56;;;;;;;16.35;10.70;;;;;;;;;;5094170;28;20463;-88
2023/08/11 06:19:23;;;;;;;13.00;10.30;;;;;;;;;;5084587;28;20089;-88
2023/08/11 06:21:50;;;;;;;13.90;10.57;;;;;;;;;;5090521;28;20533;-88
2023/08/11 06:24:15;;;;;;;13.63;11.02;;;;;;;;;;5086644;28;20020;-87
2023/08/11 06:26:40;;;;;;;16.30;11.80;;;;;;;;;;5095275;28;20379;-89
2023/08/11 06:29:06;;;;;;;13.05;10.07;;;;;;;;;;5087124;28;20024;-89
2023/08/11 06:31:31;;;;;;;15.18;11.38;;;;;;;;;;5090463;28;20108;-88
2023/08/11 06:33:57;;;;;;;14.07;10.90;;;;;;;;;;5094934;28;20047;-88
2023/08/11 06:36:22;;;;;;;16.33;11.18;;;;;;;;;;5093997;28;20107;-88
2023/08/11 06:38:48;;;;;;;13.82;10.43;;;;;;;;;;5087894;28;20024;-89
2023/08/11 06:41:13;;;;;;;14.88;11.40;;;;;;;;;;5093393;28;20490;-89
2023/08/11 06:43:39;;;;;;;13.65;11.88;;;;;;;;;;5093870;28;20104;-89
2023/08/11 06:46:05;;;;;;;14.40;10.80;;;;;;;;;;5093607;28;20031;-89
2023/08/11 06:48:30;;;;;;;14.40;11.35;;;;;;;;;;5086159;28;20024;-87
2023/08/11 06:50:58;;;;;;;14.60;11.00;;;;;;;;;;5093802;28;20030;-89
2023/08/11 06:53:24;;;;;;;13.07;11.48;;;;;;;;;;5068565;28;20033;-89
2023/08/11 06:55:51;;;;;;;16.08;11.45;;;;;;;;;;5057167;28;20056;-89
2023/08/11 06:58:16;;;;;;;14.43;11.20;;;;;;;;;;5064797;28;20024;-90
2023/08/11 07:00:42;;;;;;;13.75;11.27;;;;;;;;;;5058758;28;20032;-88
2023/08/11 07:03:08;;;;;;;12.10;10.23;;;;;;;;;;5058591;28;20031;-89
2023/08/11 07:05:33;;;;;;;15.18;11.80;;;;;;;;;;5059749;28;20036;-90
2023/08/11 07:07:58;;;;;;;15.35;11.63;;;;;;;;;;5060242;28;20028;-88
2023/08/11 07:10:24;;;;;;;14.50;12.40;;;;;;;;;;5058299;28;20366;-89
2023/08/11 07:12:49;;;;;;;14.77;11.90;;;;;;;;;;5055434;28;20032;-89
2023/08/11 07:15:15;;;;;;;13.43;10.75;;;;;;;;;;5038385;28;20060;-76
2023/08/11 07:17:40;;;;;;;15.13;12.00;;;;;;;;;;5056328;28;20028;-76
2023/08/11 07:20:06;;;;;;;13.80;11.20;;;;;;;;;;5055978;28;20555;-76
2023/08/11 07:22:32;;;;;;;13.88;11.68;;;;;;;;;;5058036;28;20038;-76
2023/08/11 07:24:57;;;;;;;18.33;11.90;;;;;;;;;;5054137;28;20032;-88
2023/08/11 07:27:22;;;;;;;15.10;11.55;;;;;;;;;;5057554;28;20027;-89
2023/08/11 07:29:48;;;;;;;14.65;11.15;;;;;;;;;;5059794;28;20027;-88
2023/08/11 07:32:14;;;;;;;15.05;11.23;;;;;;;;;;5053402;28;20021;-89
2023/08/11 07:34:40;;;;;;;14.55;11.57;;;;;;;;;;5053832;28;20104;-88
2023/08/11 07:37:05;;;;;;;18.25;12.20;;;;;;;;;;5059058;28;20017;-89
2023/08/11 07:39:32;;;;;;;15.27;11.90;;;;;;;;;;5049136;28;20043;-88
2023/08/11 07:42:02;;;;;;;15.35;11.07;;;;;;;;;;5054818;28;20400;-87
2023/08/11 07:44:30;;;;;;;12.30;9.85;;;;;;;;;;5052860;28;20112;-88
2023/08/11 07:46:56;;;;;;;12.90;10.02;;;;;;;;;;5055317;28;20031;-89
2023/08/11 07:49:22;;;;;;;13.93;9.55;;;;;;;;;;5056337;28;20032;-89
2023/08/11 07:51:49;;;;;;;11.02;9.43;;;;;;;;;;5058790;28;20036;-89
2023/08/11 07:54:16;;;;;;;14.50;10.27;;;;;;;;;;5092490;28;20103;-89
2023/08/11 07:56:42;;;;;;;14.18;10.10;;;;;;;;;;5092046;28;20031;-88
2023/08/11 07:59:08;;;;;;;11.73;8.73;;;;;;;;;;5091739;28;20050;-89
2023/08/11 08:01:33;;;;;;;10.65;8.13;;;;;;;;;;5092106;28;20059;-89
2023/08/11 08:03:58;;;;;;;10.32;8.05;;;;;;;;;;5092244;28;20020;-88
2023/08/11 08:06:24;;;;;;;8.68;6.25;;;;;;;;;;5090964;28;20028;-88
2023/08/11 08:08:50;;;;;;;9.13;6.45;;;;;;;;;;5092478;28;20556;-89
2023/08/11 08:11:15;;;;;;;10.48;6.63;;;;;;;;;;5089047;28;20024;-88
2023/08/11 08:13:41;;;;;;;11.30;8.13;;;;;;;;;;5084889;28;20490;-87
2023/08/11 08:16:06;;;;;;;10.63;7.97;;;;;;;;;;5087151;28;20503;-89
2023/08/11 08:18:32;;;;;;;10.07;6.97;;;;;;;;;;5087158;28;20027;-88
2023/08/11 08:20:57;;;;;;;12.00;6.60;;;;;;;;;;5090278;28;20027;-90
2023/08/11 08:23:23;;;;;;;10.18;6.50;;;;;;;;;;5082325;28;20032;-90
2023/08/11 08:25:48;;;;;;;10.25;6.13;;;;;;;;;;5087546;28;20024;-89
2023/08/11 08:28:13;;;;;;;13.02;5.80;;;;;;;;;;5095818;28;20034;-88
2023/08/11 08:30:39;;;;;;;9.88;5.47;;;;;;;;;;5091613;28;20077;-85
2023/08/11 08:33:06;;;;;;;8.40;5.32;;;;;;;;;;5085124;28;20029;-89
2023/08/11 08:35:31;;;;;;;8.43;5.82;;;;;;;;;;5091983;28;20398;-76
2023/08/11 08:37:56;;;;;;;6.47;5.03;;;;;;;;;;5087484;28;20103;-77
2023/08/11 08:40:22;;;;;;;7.70;4.70;;;;;;;;;;5086422;28;20020;-76
2023/08/11 08:42:49;;;;;;;7.85;4.65;;;;;;;;;;5084948;28;20024;-76
2023/08/11 08:45:14;;;;;;;9.05;4.63;;;;;;;;;;5091474;28;20030;-77
2023/08/11 08:47:41;;;;;;;7.10;4.38;;;;;;;;;;5093465;28;20016;-77
2023/08/11 08:50:09;;;;;;;6.93;3.90;;;;;;;;;;5092470;28;20024;-77
2023/08/11 08:52:34;;;;;;;5.40;3.72;;;;;;;;;;5090912;28;20024;-76
2023/08/11 08:55:01;;;;;;;8.13;3.75;;;;;;;;;;5081692;28;20526;-76
2023/08/11 08:57:27;;;;;;;6.03;3.95;;;;;;;;;;5086077;28;20077;-77
2023/08/11 08:59:53;;;;;;;4.97;3.58;;;;;;;;;;5091604;28;20035;-77
2023/08/11 09:02:19;;;;;;;7.00;4.10;;;;;;;;;;5091036;28;20028;-77
2023/08/11 09:04:47;;;;;;;6.47;3.70;;;;;;;;;;5091798;28;20447;-77
2023/08/11 09:07:13;;;;;;;9.88;3.38;;;;;;;;;;5096021;28;20028;-77
2023/08/11 09:09:38;;;;;;;5.00;3.38;;;;;;;;;;5083802;28;20016;-77
2023/08/11 09:12:04;;;;;;;7.55;3.63;;;;;;;;;;5081839;28;20024;-77
2023/08/11 09:14:30;;;;;;;5.68;3.65;;;;;;;;;;5092341;28;20023;-77
2023/08/11 09:16:58;;;;;;;5.55;3.70;;;;;;;;;;5083392;28;20028;-77
2023/08/11 09:19:23;;;;;;;6.72;4.07;;;;;;;;;;5079103;28;20031;-78
2023/08/11 09:21:49;;;;;;;5.53;3.88;;;;;;;;;;5087726;28;20032;-78
2023/08/11 09:24:15;;;;;;;5.72;3.80;;;;;;;;;;5090888;28;20024;-77
2023/08/11 09:26:49;;;;;;;5.32;3.38;;;;;;;;;;5086211;28;20026;-76
2023/08/11 09:29:19;;;;;;;4.72;2.75;;;;;;;;;;5085902;28;20027;-77
2023/08/11 09:31:52;;;;;;;4.60;3.00;;;;;;;;;;5085669;28;20024;-78
2023/08/11 09:34:18;;;;;;;4.95;2.90;;;;;;;;;;5087627;28;20361;-77
2023/08/11 09:36:45;;;;;;;5.25;2.80;;;;;;;;;;5089066;28;20024;-78
2023/08/11 09:39:11;;;;;;;3.78;2.33;;;;;;;;;;5087337;28;20043;-77
2023/08/11 09:41:47;;;;;;;5.13;2.90;;;;;;;;;;5094561;28;20399;-78
2023/08/11 09:44:18;;;;;;;6.82;2.55;;;;;;;;;;5095558;28;20054;-77
2023/08/11 09:46:44;;;;;;;4.72;3.00;;;;;;;;;;5095194;28;20044;-92
2023/08/11 09:49:10;;;;;;;4.90;3.00;;;;;;;;;;5095780;28;20024;-91
2023/08/11 09:51:36;;;;;;;6.35;2.75;;;;;;;;;;5096139;28;20024;-90
2023/08/11 09:54:08;;;;;;;4.30;2.80;;;;;;;;;;5096133;28;20384;-91
2023/08/11 09:56:39;;;;;;;5.72;2.88;;;;;;;;;;5104337;28;20106;-89
2023/08/11 09:59:14;;;;;;;4.40;2.90;;;;;;;;;;5094129;28;20020;-91
2023/08/11 10:01:42;;;;;;;4.60;3.03;;;;;;;;;;5093139;28;20024;-91
2023/08/11 10:04:14;;;;;;;4.90;2.65;;;;;;;;;;5095053;28;20107;-89
2023/08/11 10:06:42;;;;;;;;;;;;;;;;;;5096270;28;20463;-90
2023/08/11 10:09:12;;;;;;;6.82;2.83;;;;;;;;;;5093708;28;19956;-89
2023/08/11 10:11:38;;;;;;;6.38;2.60;;;;;;;;;;5088596;28;20110;-90
2023/08/11 10:14:04;;;;;;;4.00;2.60;;;;;;;;;;5090524;28;20054;-90
2023/08/11 10:16:31;;;;;;;3.40;2.22;;;;;;;;;;5092066;28;20020;-88
2023/08/11 10:18:58;;;;;;;6.80;2.50;;;;;;;;;;5093127;28;20496;-91
2023/08/11 10:21:26;;;;;;;5.47;2.60;;;;;;;;;;5094260;28;20544;-91
2023/08/11 10:23:56;;;;;;;4.63;2.67;;;;;;;;;;5094122;28;20047;-91
2023/08/11 10:26:23;;;;;;;6.30;2.70;;;;;;;;;;5090633;28;20110;-90
2023/08/11 10:28:49;;;;;;;5.05;2.63;;;;;;;;;;5090753;28;20472;-90
2023/08/11 10:31:14;;;;;;;4.93;2.50;;;;;;;;;;5093161;28;20110;-90
2023/08/11 10:33:47;;;;;;;5.10;2.50;;;;;;;;;;5091111;28;20103;-91
2023/08/11 10:36:17;;;;;;;4.10;2.80;;;;;;;;;;5089367;28;20031;-90
2023/08/11 10:38:58;;;;;;;5.13;2.80;;;;;;;;;;5092988;28;20020;-88
2023/08/11 10:41:24;;;;;;;5.85;2.50;;;;;;;;;;5091646;28;20503;-91
2023/08/11 10:43:49;;;;;;;6.03;2.50;;;;;;;;;;5093105;28;20064;-91
2023/08/11 10:46:17;;;;;;;4.32;2.30;;;;;;;;;;5088758;28;20032;-90
2023/08/11 10:48:42;;;;;;;4.75;2.63;;;;;;;;;;5095847;28;20021;-90
2023/08/11 10:51:23;;;;;;;4.20;2.38;;;;;;;;;;5102224;28;20488;-90
2023/08/11 10:53:48;;;;;;;4.50;2.20;;;;;;;;;;5094178;28;20024;-90
2023/08/11 10:56:13;;;;;;;6.32;2.20;;;;;;;;;;5091041;28;20032;-77
2023/08/11 10:58:39;;;;;;;4.38;2.42;;;;;;;;;;5092865;28;20024;-77
2023/08/11 11:01:04;;;;;;;3.22;2.20;;;;;;;;;;5093236;28;20046;-77
2023/08/11 11:03:30;;;;;;;5.68;2.28;;;;;;;;;;5085219;28;20039;-77
2023/08/11 11:05:57;;;;;;;5.25;2.22;;;;;;;;;;5092028;28;20030;-77
2023/08/11 11:08:22;;;;;;;5.30;2.40;;;;;;;;;;5108233;28;20159;-77
2023/08/11 11:10:48;;;;;;;3.95;2.28;;;;;;;;;;5086731;28;20115;-78
2023/08/11 11:13:13;;;;;;;4.40;2.20;;;;;;;;;;5091886;28;20020;-78
2023/08/11 11:15:38;;;;;;;3.63;2.10;;;;;;;;;;5089550;28;20038;-77
2023/08/11 11:18:04;;;;;;;3.95;2.20;;;;;;;;;;5092877;28;20024;-77
2023/08/11 11:20:29;;;;;;;4.43;2.33;;;;;;;;;;5089813;28;20028;-78
2023/08/11 11:22:55;;;;;;;4.05;2.10;;;;;;;;;;5091712;28;20032;-77
2023/08/11 11:25:21;;;;;;;3.47;2.10;;;;;;;;;;5088129;28;20206;-77
2023/08/11 11:27:46;;;;;;;4.05;2.35;;;;;;;;;;5091928;28;20015;-76
2023/08/11 11:30:13;;;;;;;4.90;2.13;;;;;;;;;;5075788;28;20111;-77
2023/08/11 11:32:39;;;;;;;3.55;2.25;;;;;;;;;;5090884;28;20035;-77
2023/08/11 11:35:05;;;;;;;5.15;2.53;;;;;;;;;;5088174;28;20017;-77
2023/08/11 11:37:33;;;;;;;3.90;2.22;;;;;;;;;;5090230;28;20020;-77
2023/08/11 11:39:59;;;;;;;3.47;2.40;;;;;;;;;;5088021;28;20383;-76
2023/08/11 11:42:37;;;;;;;4.53;2.28;;;;;;;;;;5080633;28;20020;-78
2023/08/11 11:45:04;;;;;;;4.90;2.75;;;;;;;;;;5089575;28;20043;-77
2023/08/11 11:47:29;;;;;;;4.70;2.20;;;;;;;;;;5093530;28;20016;-77
2023/08/11 11:49:58;;;;;;;4.72;2.30;;;;;;;;;;5093442;28;20024;-77
2023/08/11 11:52:25;;;;;;;3.13;2.30;;;;;;;;;;5093246;28;20024;-77
2023/08/11 11:54:52;;;;;;;4.85;2.15;;;;;;;;;;5091804;28;20514;-77
2023/08/11 11:57:18;;;;;;;4.75;2.53;;;;;;;;;;5092338;28;20027;-77
2023/08/11 11:59:46;;;;;;;3.42;2.10;;;;;;;;;;5092124;28;20027;-77
2023/08/11 12:02:12;;;;;;;4.32;2.30;;;;;;;;;;5091299;28;20023;-77
2023/08/11 12:04:39;;;;;;;3.60;2.33;;;;;;;;;;5075293;28;20024;-86
2023/08/11 12:07:07;;;;;;;4.40;2.30;;;;;;;;;;5084080;28;20020;-86
2023/08/11 12:09:48;;;;;;;3.28;2.20;;;;;;;;;;5087562;28;20012;-87
2023/08/11 12:12:14;;;;;;;3.08;2.15;;;;;;;;;;5086943;28;20028;-88
2023/08/11 12:14:39;;;;;;;4.00;2.20;;;;;;;;;;5091780;28;20016;-86
2023/08/11 12:17:05;;;;;;;3.03;2.25;;;;;;;;;;5093310;28;20360;-88
2023/08/11 12:19:30;;;;;;;5.18;2.53;;;;;;;;;;5092895;28;20031;-86
2023/08/11 12:21:56;;;;;;;3.78;2.50;;;;;;;;;;5079435;28;20029;-87
2023/08/11 12:24:22;;;;;;;4.22;2.50;;;;;;;;;;5092151;28;20422;-87
2023/08/11 12:26:48;;;;;;;3.50;2.20;;;;;;;;;;5081139;28;20028;-85
2023/08/11 12:29:13;;;;;;;3.08;2.40;;;;;;;;;;5091658;28;20361;-87
2023/08/11 12:31:39;;;;;;;4.30;2.05;;;;;;;;;;5086092;28;20027;-87
2023/08/11 12:34:04;;;;;;;4.05;2.50;;;;;;;;;;5082985;28;20533;-88
2023/08/11 12:36:29;;;;;;;3.97;2.60;;;;;;;;;;5073454;28;20123;-83
2023/08/11 12:38:55;;;;;;;5.70;2.35;;;;;;;;;;5086797;28;20052;-86
2023/08/11 12:41:20;;;;;;;3.67;2.15;;;;;;;;;;5090392;28;20020;-88
2023/08/11 12:43:46;;;;;;;4.60;2.60;;;;;;;;;;5088695;28;20455;-87
2023/08/11 12:46:11;;;;;;;3.90;2.60;;;;;;;;;;5090046;28;20027;-86
2023/08/11 12:48:37;;;;;;;3.95;2.40;;;;;;;;;;5080748;28;20064;-88
2023/08/11 12:51:02;;;;;;;6.20;2.65;;;;;;;;;;5084947;28;20085;-87
2023/08/11 12:53:27;;;;;;;3.47;2.28;;;;;;;;;;5091471;28;20051;-87
2023/08/11 12:55:53;;;;;;;4.97;2.50;;;;;;;;;;5081277;28;20093;-87
2023/08/11 12:58:18;;;;;;;5.10;2.70;;;;;;;;;;5091615;28;20460;-88
2023/08/11 13:00:44;;;;;;;4.18;2.28;;;;;;;;;;5092715;28;20024;-88
2023/08/11 13:03:09;;;;;;;5.15;2.55;;;;;;;;;;5085604;28;20476;-88
2023/08/11 13:05:35;;;;;;;4.90;2.40;;;;;;;;;;5080243;28;20167;-88
2023/08/11 13:08:01;;;;;;;3.75;2.60;;;;;;;;;;5086759;28;20487;-88
2023/08/11 13:10:26;;;;;;;4.07;2.30;;;;;;;;;;5091197;28;20024;-88
2023/08/11 13:12:51;;;;;;;4.15;2.40;;;;;;;;;;5085015;28;20025;-89
2023/08/11 13:15:17;;;;;;;4.63;3.13;;;;;;;;;;5093928;28;20028;-77
2023/08/11 13:17:44;;;;;;;4.60;2.40;;;;;;;;;;5082372;28;20119;-77
2023/08/11 13:20:10;;;;;;;4.75;2.70;;;;;;;;;;5083095;28;20024;-77
2023/08/11 13:22:36;;;;;;;4.03;2.70;;;;;;;;;;5082004;28;20024;-77
2023/08/11 13:25:02;;;;;;;5.78;2.75;;;;;;;;;;5082894;28;20020;-77
2023/08/11 13:27:28;;;;;;;3.92;2.58;;;;;;;;;;5086953;28;20020;-77
2023/08/11 13:29:53;;;;;;;4.32;2.83;;;;;;;;;;5095550;28;20085;-77
2023/08/11 13:32:18;;;;;;;3.75;2.67;;;;;;;;;;5094688;28;20020;-76
2023/08/11 13:34:44;;;;;;;3.45;2.25;;;;;;;;;;5096636;28;20019;-77
2023/08/11 13:37:09;;;;;;;4.00;2.70;;;;;;;;;;5094533;28;20020;-77
2023/08/11 13:39:35;;;;;;;3.58;2.58;;;;;;;;;;5093164;28;20033;-77
2023/08/11 13:42:01;;;;;;;5.15;2.80;;;;;;;;;;5087253;28;20028;-76
2023/08/11 13:44:26;;;;;;;3.88;2.58;;;;;;;;;;5090418;28;20265;-76
2023/08/11 13:46:51;;;;;;;5.38;2.40;;;;;;;;;;5096038;28;20026;-77
2023/08/11 13:49:17;;;;;;;4.60;2.55;;;;;;;;;;5095954;28;20024;-77
2023/08/11 13:51:42;;;;;;;4.10;2.47;;;;;;;;;;5092375;28;20031;-77
2023/08/11 13:54:08;;;;;;;4.50;2.80;;;;;;;;;;5094591;28;20046;-77
2023/08/11 13:56:33;;;;;;;4.13;2.80;;;;;;;;;;5086867;28;20058;-77
2023/08/11 13:59:01;;;;;;;4.20;2.60;;;;;;;;;;5077663;28;20028;-77
2023/08/11 14:01:26;;;;;;;4.88;2.67;;;;;;;;;;5084769;28;20059;-77
2023/08/11 14:03:52;;;;;;;4.80;2.58;;;;;;;;;;5095598;28;20052;-77
2023/08/11 14:06:17;;;;;;;4.10;2.35;;;;;;;;;;5077812;28;20028;-77
2023/08/11 14:08:43;;;;;;;4.22;2.55;;;;;;;;;;5089827;28;20054;-77
2023/08/11 14:11:09;;;;;;;3.70;2.80;;;;;;;;;;5094021;28;20111;-77
2023/08/11 14:13:35;;;;;;;5.35;2.88;;;;;;;;;;5084427;28;20173;-77
2023/08/11 14:16:00;;;;;;;4.40;2.60;;;;;;;;;;5092925;28;20523;-77
2023/08/11 14:18:25;;;;;;;3.97;2.58;;;;;;;;;;5093781;28;20039;-77
2023/08/11 14:20:51;;;;;;;5.30;2.47;;;;;;;;;;5093986;28;20046;-76
2023/08/11 14:23:16;;;;;;;5.03;2.55;;;;;;;;;;5092600;28;20249;-77
2023/08/11 14:25:42;;;;;;;3.60;2.50;;;;;;;;;;5092728;28;20036;-77
2023/08/11 14:28:07;;;;;;;4.75;2.55;;;;;;;;;;5091827;28;20025;-77
2023/08/11 14:30:33;;;;;;;4.25;2.53;;;;;;;;;;5090558;28;20035;-77